Propane Maru No.18 — JL6540 — position and weather

sailwx.info

Track history (hours):
 
Tides and Currents Weather Stations Pressure Air Temp Water Temp Dewpoint Dewpoint Depression Visibility Wind Speed Wind Dir Waves Ship Positions

Propane Maru No.18

Last reported at 2018-Feb-18 07:00 UTC. Time now 2018-Feb-18 07:05 UTC.
Position N 35°20' E 139°45'.

Length 63 m; draft 4.5 m.

Type: Tanker. MMSI: 431501275.

Date/timePositionNaut miles runAvg speedWind from/ knotsBaromVisibWave heightAir tempDewpointWater temp
2018-Feb-18 07:00N 35°20' E 139°45'612.3
2018-Feb-18 06:29N 35°14' E 139°47'612.8
2018-Feb-18 06:00N 35°08' E 139°46'912.7
2018-Feb-18 05:17N 35°01' E 139°39'1513.4
2018-Feb-18 04:11N 34°52' E 139°24'414.0
2018-Feb-18 03:55N 34°50' E 139°21'614.4
2018-Feb-18 03:29N 34°45' E 139°15'714.9
2018-Feb-18 03:01N 34°40' E 139°09'714.1
2018-Feb-18 02:31N 34°35' E 139°03'712.9
2018-Feb-18 02:00N 34°32' E 138°57'813.2
2018-Feb-18 01:24N 34°29' E 138°47'512.9
2018-Feb-18 00:59N 34°28' E 138°41'713.2
2018-Feb-18 00:29N 34°27' E 138°33'612.7
2018-Feb-18 00:00N 34°26' E 138°26'813.3
2018-Feb-17 23:24N 34°25' E 138°16'16410.2
2018-Feb-17 07:20N 33°50' E 135°02'413.2
2018-Feb-17 07:00N 33°54' E 135°01'713.7
2018-Feb-17 06:31N 34°01' E 135°00'713.5
2018-Feb-17 06:00N 34°07' E 134°60'713.7
2018-Feb-17 05:30N 34°14' E 134°59'713.7
2018-Feb-17 05:01N 34°21' E 135°00'713.2
2018-Feb-17 04:31N 34°27' E 135°02'613.0
2018-Feb-17 04:01N 34°34' E 135°04'611.2
2018-Feb-17 03:30N 34°37' E 134°58'612.8
2018-Feb-17 03:00N 34°38' E 134°50'612.7
2018-Feb-17 02:30N 34°40' E 134°43'612.7
2018-Feb-17 02:00N 34°44' E 134°37'3 5.1
2018-Feb-17 01:30N 34°46' E 134°35'0 0.0
2018-Feb-17 00:59N 34°46' E 134°35'0 0.0
2018-Feb-17 00:30N 34°46' E 134°35'0 0.0
2018-Feb-17 00:00N 34°46' E 134°35'0 0.0
2018-Feb-16 23:30N 34°46' E 134°35'0 0.3
2018-Feb-16 23:00N 34°46' E 134°35'1 1.3
2018-Feb-16 22:30N 34°45' E 134°36'0 0.1
2018-Feb-16 22:00N 34°45' E 134°36'0 0.0
2018-Feb-16 21:26N 34°45' E 134°36'0 0.0
2018-Feb-16 20:48N 34°45' E 134°36'0 0.0
2018-Feb-16 19:52N 34°45' E 134°36'0 0.0
2018-Feb-16 19:30N 34°45' E 134°36'0 0.0
2018-Feb-16 19:00N 34°45' E 134°36'0 0.0
2018-Feb-16 18:23N 34°45' E 134°36'0 0.0
2018-Feb-16 18:00N 34°45' E 134°36'0 0.0
2018-Feb-16 17:30N 34°45' E 134°36'0 0.0
2018-Feb-16 17:00N 34°45' E 134°36'0 0.0
2018-Feb-16 16:30N 34°45' E 134°36'0 0.0
2018-Feb-16 15:59N 34°45' E 134°36'0 0.0
2018-Feb-16 15:27N 34°45' E 134°36'0 0.1
2018-Feb-16 14:53N 34°45' E 134°36'0 0.0
2018-Feb-16 14:30N 34°45' E 134°36'0 0.0
2018-Feb-16 13:59N 34°45' E 134°36'0 0.0
2018-Feb-16 13:30N 34°45' E 134°36'3 6.7
2018-Feb-16 13:00N 34°43' E 134°39'612.5
2018-Feb-16 12:30N 34°41' E 134°46'713.3
2018-Feb-16 12:00N 34°38' E 134°53'714.5
2018-Feb-16 11:30N 34°37' E 135°02'611.5
2018-Feb-16 11:00N 34°32' E 135°04'612.9
2018-Feb-16 10:30N 34°25' E 135°03'612.4
2018-Feb-16 10:00N 34°20' E 135°00'612.6
2018-Feb-16 09:30N 34°13' E 134°60'612.3
2018-Feb-16 09:00N 34°07' E 135°00'612.1
2018-Feb-16 08:30N 34°01' E 135°01'612.1
2018-Feb-16 08:00N 33°55' E 135°02'611.8
2018-Feb-16 07:30N 33°50' E 135°05'115 9.9
2018-Feb-15 19:53N 34°25' E 137°17'512.2
2018-Feb-15 19:30N 34°28' E 137°21'2611.2
2018-Feb-15 17:13N 34°38' E 137°50'412.0
2018-Feb-15 16:52N 34°38' E 137°55'411.3
2018-Feb-15 16:29N 34°38' E 138°00'610.6
2018-Feb-15 15:55N 34°36' E 138°07'4 9.9
2018-Feb-15 15:29N 34°34' E 138°12'510.0
2018-Feb-15 15:00N 34°34' E 138°18'610.6
2018-Feb-15 14:26N 34°34' E 138°25'510.3
2018-Feb-15 13:59N 34°34' E 138°31'510.3
2018-Feb-15 13:30N 34°34' E 138°37'510.2
2018-Feb-15 13:00N 34°35' E 138°43'510.2
2018-Feb-15 12:30N 34°35' E 138°49'5 9.4
2018-Feb-15 12:00N 34°36' E 138°55'5 9.4
2018-Feb-15 11:30N 34°38' E 138°59'510.5
2018-Feb-15 11:00N 34°42' E 139°04'510.9
2018-Feb-15 10:30N 34°47' E 139°07'610.7
2018-Feb-15 09:55N 34°52' E 139°11'410.6
2018-Feb-15 09:30N 34°56' E 139°14'510.5
2018-Feb-15 09:00N 34°58' E 139°20'510.6
2018-Feb-15 08:30N 35°00' E 139°26'510.6
2018-Feb-15 08:00N 35°03' E 139°31'611.2
2018-Feb-15 07:30N 35°06' E 139°37'611.8
2018-Feb-15 07:00N 35°09' E 139°43'611.4
2018-Feb-15 06:30N 35°14' E 139°46'611.3
2018-Feb-15 06:00N 35°19' E 139°43'611.1
2018-Feb-15 05:30N 35°25' E 139°44'612.3
2018-Feb-15 05:00N 35°28' E 139°50'611.9
2018-Feb-15 04:30N 35°31' E 139°56'611.4
2018-Feb-15 04:00N 35°32' E 140°03'0 0.7
2018-Feb-15 03:30N 35°32' E 140°03'0 0.0
2018-Feb-15 03:00N 35°32' E 140°03'0 0.0
2018-Feb-15 02:29N 35°32' E 140°03'0 0.0
2018-Feb-15 02:00N 35°32' E 140°03'0 0.0
2018-Feb-15 01:30N 35°32' E 140°03'0 0.0
2018-Feb-15 01:00N 35°32' E 140°03'0 0.0
2018-Feb-15 00:30N 35°32' E 140°03'0 0.0
2018-Feb-15 00:00N 35°32' E 140°03'0 0.1
2018-Feb-14 23:31N 35°32' E 140°03'3 5.9
2018-Feb-14 23:00N 35°32' E 139°60'611.4
2018-Feb-14 22:30N 35°29' E 139°54'1 1.0
2018-Feb-14 22:00N 35°28' E 139°53'0 0.1
2018-Feb-14 21:30N 35°28' E 139°53'0 0.0
2018-Feb-14 21:00N 35°28' E 139°53'0 0.0
2018-Feb-14 20:30N 35°28' E 139°53'3 5.3
2018-Feb-14 20:00N 35°27' E 139°50'510.9
2018-Feb-14 19:30N 35°23' E 139°46'510.6
2018-Feb-14 19:00N 35°18' E 139°45'510.8
2018-Feb-14 18:30N 35°13' E 139°47'510.6
2018-Feb-14 18:00N 35°08' E 139°46'611.1
2018-Feb-14 17:30N 35°02' E 139°44'9 8.2
2018-Feb-14 16:25N 34°54' E 139°46'13 5.9
2018-Feb-14 14:10N 34°55' E 140°02'4 7.8
2018-Feb-14 13:40N 34°57' E 140°06'2 8.1
2018-Feb-14 13:26N 34°59' E 140°08'3 0.1
2018-Feb-13 10:11N 34°56' E 140°09'22 9.1
2018-Feb-13 07:43N 35°00' E 139°42'210.8
2018-Feb-13 07:30N 35°03' E 139°43'510.5
2018-Feb-13 07:00N 35°08' E 139°44'510.7
2018-Feb-13 06:30N 35°13' E 139°46'510.9
2018-Feb-13 06:00N 35°18' E 139°44'510.7
2018-Feb-13 05:30N 35°23' E 139°42'510.5
2018-Feb-13 05:00N 35°27' E 139°46'3 6.8
2018-Feb-13 04:31N 35°31' E 139°46'0 0.0
2018-Feb-13 04:00N 35°31' E 139°46'0 0.0
2018-Feb-13 03:30N 35°31' E 139°46'0 0.0
2018-Feb-13 03:00N 35°31' E 139°46'0 0.0
2018-Feb-13 02:30N 35°31' E 139°46'0 0.0
2018-Feb-13 02:00N 35°31' E 139°46'0 0.0
2018-Feb-13 01:30N 35°31' E 139°46'0 0.0
2018-Feb-13 01:00N 35°31' E 139°46'0 0.0
2018-Feb-13 00:30N 35°31' E 139°46'0 0.7
2018-Feb-13 00:00N 35°30' E 139°47'2 4.3
2018-Feb-12 23:31N 35°29' E 139°49'0 0.1
2018-Feb-12 23:00N 35°29' E 139°49'0 0.0
2018-Feb-12 22:31N 35°29' E 139°49'0 0.0
2018-Feb-12 22:00N 35°29' E 139°49'0 0.1
2018-Feb-12 21:30N 35°29' E 139°49'0 0.0
2018-Feb-12 21:00N 35°29' E 139°49'0 0.1
2018-Feb-12 20:30N 35°29' E 139°49'0 0.1
2018-Feb-12 20:00N 35°29' E 139°49'0 0.0
2018-Feb-12 19:30N 35°29' E 139°49'0 0.0
2018-Feb-12 19:00N 35°29' E 139°49'0 0.0
2018-Feb-12 18:30N 35°29' E 139°49'0 0.0
2018-Feb-12 18:00N 35°29' E 139°49'0 0.0
2018-Feb-12 17:30N 35°29' E 139°49'0 0.0
2018-Feb-12 17:00N 35°29' E 139°49'0 0.0
2018-Feb-12 16:30N 35°29' E 139°49'0 0.0
2018-Feb-12 16:00N 35°29' E 139°49'0 0.0
2018-Feb-12 15:31N 35°29' E 139°49'0 0.0
2018-Feb-12 15:00N 35°29' E 139°49'0 0.0
2018-Feb-12 14:29N 35°29' E 139°49'0 0.0
2018-Feb-12 14:00N 35°29' E 139°49'0 0.0
2018-Feb-12 13:30N 35°29' E 139°49'0 0.1
2018-Feb-12 13:00N 35°29' E 139°49'0 0.1
2018-Feb-12 12:30N 35°29' E 139°49'0 0.0
2018-Feb-12 12:00N 35°29' E 139°49'0 0.0
2018-Feb-12 11:30N 35°29' E 139°49'0 0.0
2018-Feb-12 11:00N 35°29' E 139°49'0 0.0
2018-Feb-12 10:30N 35°29' E 139°49'0 0.0
2018-Feb-12 10:00N 35°29' E 139°49'0 0.0
2018-Feb-12 09:30N 35°29' E 139°49'0 0.0
2018-Feb-12 09:00N 35°29' E 139°49'0 0.0
2018-Feb-12 08:31N 35°29' E 139°49'0 0.0
2018-Feb-12 08:00N 35°29' E 139°49'0 0.0
2018-Feb-12 07:29N 35°29' E 139°49'0 0.1
2018-Feb-12 07:00N 35°29' E 139°49'2 4.0
2018-Feb-12 06:30N 35°27' E 139°48'612.8
2018-Feb-12 06:00N 35°21' E 139°45'611.3
2018-Feb-12 05:31N 35°16' E 139°46'612.1
2018-Feb-12 05:00N 35°10' E 139°47'612.2
2018-Feb-12 04:30N 35°04' E 139°44'612.6
2018-Feb-12 03:59N 34°60' E 139°38'913.0
2018-Feb-12 03:16N 34°54' E 139°29'414.1
2018-Feb-12 03:00N 34°52' E 139°25'814.8
2018-Feb-12 02:30N 34°47' E 139°18'914.4
2018-Feb-12 01:53N 34°41' E 139°10'514.6
2018-Feb-12 01:30N 34°38' E 139°06'713.8
2018-Feb-12 00:59N 34°33' E 138°59'912.9
2018-Feb-12 00:19N 34°31' E 138°49'412.8
2018-Feb-12 00:01N 34°30' E 138°44'712.8
2018-Feb-11 23:25N 34°30' E 138°35'612.9
2018-Feb-11 22:59N 34°29' E 138°28'612.9
2018-Feb-11 22:30N 34°29' E 138°20'713.4
2018-Feb-11 21:58N 34°28' E 138°12'713.3
2018-Feb-11 21:29N 34°27' E 138°04'6814.1
2018-Feb-11 16:38N 34°08' E 136°45'87 9.6
2018-Feb-11 07:36N 33°48' E 135°03'213.3
2018-Feb-11 07:29N 33°49' E 135°02'612.8
2018-Feb-11 07:00N 33°55' E 134°59'613.0
2018-Feb-11 06:30N 34°01' E 134°59'713.1
2018-Feb-11 06:00N 34°08' E 134°59'713.6
2018-Feb-11 05:31N 34°15' E 134°59'713.5
2018-Feb-11 05:00N 34°21' E 134°60'713.4
2018-Feb-11 04:31N 34°28' E 135°02'713.4
2018-Feb-11 04:01N 34°34' E 135°03'612.5
2018-Feb-11 03:30N 34°36' E 134°56'714.3
2018-Feb-11 03:00N 34°38' E 134°48'713.0
2018-Feb-11 02:30N 34°41' E 134°41'612.7
2018-Feb-11 02:00N 34°46' E 134°35'0 0.3
2018-Feb-11 01:30N 34°46' E 134°35'0 0.0
2018-Feb-11 01:00N 34°46' E 134°35'0 0.1
2018-Feb-11 00:30N 34°46' E 134°35'0 0.1
2018-Feb-10 23:58N 34°46' E 134°35'0 0.1
2018-Feb-10 23:28N 34°46' E 134°35'0 0.1
2018-Feb-10 23:00N 34°46' E 134°35'1 1.2
2018-Feb-10 22:22N 34°45' E 134°36'0 0.0
2018-Feb-10 22:00N 34°45' E 134°36'0 0.1
2018-Feb-10 21:30N 34°45' E 134°35'0 0.0
2018-Feb-10 21:00N 34°45' E 134°35'0 0.1
2018-Feb-10 20:30N 34°45' E 134°36'0 0.0
2018-Feb-10 18:22N 34°45' E 134°36'0 0.0
2018-Feb-10 17:13N 34°45' E 134°36'0 0.0
2018-Feb-10 15:46N 34°45' E 134°36'0 0.2
2018-Feb-10 15:30N 34°45' E 134°35'0 0.1
2018-Feb-10 15:00N 34°45' E 134°36'0 0.0
2018-Feb-10 14:29N 34°45' E 134°36'0 0.0
2018-Feb-10 13:57N 34°45' E 134°36'0 0.0
2018-Feb-10 13:30N 34°45' E 134°36'0 0.0
2018-Feb-10 12:53N 34°45' E 134°36'0 0.0
2018-Feb-10 12:28N 34°45' E 134°36'0 0.0
2018-Feb-10 11:59N 34°45' E 134°36'0 0.0
2018-Feb-10 11:02N 34°45' E 134°36'0 0.7
2018-Feb-10 10:58N 34°45' E 134°35'0 0.0
2018-Feb-10 10:22N 34°45' E 134°35'0 0.0
2018-Feb-10 10:00N 34°45' E 134°35'0 0.0
2018-Feb-10 09:19N 34°45' E 134°35'0 0.0
2018-Feb-10 08:49N 34°45' E 134°35'2 5.5
2018-Feb-10 08:30N 34°44' E 134°37'612.5
2018-Feb-10 08:00N 34°42' E 134°44'612.7
2018-Feb-10 07:30N 34°39' E 134°51'612.6
2018-Feb-10 07:00N 34°38' E 134°58'612.0
2018-Feb-10 06:30N 34°35' E 135°05'611.8
2018-Feb-10 06:00N 34°29' E 135°03'612.1
2018-Feb-10 05:31N 34°24' E 135°02'611.7
2018-Feb-10 05:00N 34°18' E 134°60'611.5
2018-Feb-10 04:30N 34°12' E 134°59'611.6
2018-Feb-10 04:00N 34°06' E 134°60'611.7
2018-Feb-10 03:30N 34°01' E 135°00'611.8
2018-Feb-10 02:59N 33°54' E 135°01'511.3
2018-Feb-10 02:30N 33°49' E 135°03'25010.2
2018-Feb-09 02:00N 35°25' E 139°44'611.6
2018-Feb-09 01:30N 35°30' E 139°47'1 1.0
2018-Feb-09 00:30N 35°31' E 139°46'0 0.0
2018-Feb-09 00:00N 35°31' E 139°46'0 0.0
2018-Feb-08 23:30N 35°31' E 139°46'0 0.0
2018-Feb-08 23:00N 35°31' E 139°46'0 0.0
2018-Feb-08 22:30N 35°31' E 139°46'2 1.5
2018-Feb-08 21:00N 35°29' E 139°46'0 0.1
2018-Feb-08 20:30N 35°29' E 139°46'0 0.0
2018-Feb-08 19:30N 35°29' E 139°46'0 0.0
2018-Feb-08 18:30N 35°29' E 139°46'0 0.0
2018-Feb-08 18:00N 35°29' E 139°46'0 0.0
2018-Feb-08 17:30N 35°29' E 139°46'0 0.0
2018-Feb-08 17:00N 35°29' E 139°46'0 0.0
2018-Feb-08 15:30N 35°29' E 139°46'0 0.0
2018-Feb-08 15:00N 35°29' E 139°46'0 0.0
2018-Feb-08 13:00N 35°29' E 139°46'0 0.0
2018-Feb-08 12:30N 35°29' E 139°46'0 0.0
2018-Feb-08 11:30N 35°29' E 139°46'0 0.1
2018-Feb-08 10:30N 35°29' E 139°46'0 0.1
2018-Feb-08 10:00N 35°29' E 139°46'0 0.0
2018-Feb-08 09:30N 35°29' E 139°46'0 0.0
2018-Feb-08 08:30N 35°29' E 139°46'2 4.8
2018-Feb-08 08:00N 35°26' E 139°47'  
Track history (hours):
 
Tides and Currents Weather Stations Pressure Air Temp Water Temp Dewpoint Dewpoint Depression Visibility Wind Speed Wind Dir Waves Ship Positions

Propane Maru No.18

Last reported at 2018-Feb-18 07:00 UTC. Time now 2018-Feb-18 07:05 UTC.
Position N 35°20' E 139°45'.

Length 63 m; draft 4.5 m.

Type: Tanker. MMSI: 431501275.

Date/timePositionNaut miles runAvg speedWind from/ knotsBaromVisibWave heightAir tempDewpointWater temp
2018-Feb-18 07:00N 35°20' E 139°45'612.3
2018-Feb-18 06:29N 35°14' E 139°47'612.8
2018-Feb-18 06:00N 35°08' E 139°46'912.7
2018-Feb-18 05:17N 35°01' E 139°39'1513.4
2018-Feb-18 04:11N 34°52' E 139°24'414.0
2018-Feb-18 03:55N 34°50' E 139°21'614.4
2018-Feb-18 03:29N 34°45' E 139°15'714.9
2018-Feb-18 03:01N 34°40' E 139°09'714.1
2018-Feb-18 02:31N 34°35' E 139°03'712.9
2018-Feb-18 02:00N 34°32' E 138°57'813.2
2018-Feb-18 01:24N 34°29' E 138°47'512.9
2018-Feb-18 00:59N 34°28' E 138°41'713.2
2018-Feb-18 00:29N 34°27' E 138°33'612.7
2018-Feb-18 00:00N 34°26' E 138°26'813.3
2018-Feb-17 23:24N 34°25' E 138°16'16410.2
2018-Feb-17 07:20N 33°50' E 135°02'413.2
2018-Feb-17 07:00N 33°54' E 135°01'713.7
2018-Feb-17 06:31N 34°01' E 135°00'713.5
2018-Feb-17 06:00N 34°07' E 134°60'713.7
2018-Feb-17 05:30N 34°14' E 134°59'713.7
2018-Feb-17 05:01N 34°21' E 135°00'713.2
2018-Feb-17 04:31N 34°27' E 135°02'613.0
2018-Feb-17 04:01N 34°34' E 135°04'611.2
2018-Feb-17 03:30N 34°37' E 134°58'612.8
2018-Feb-17 03:00N 34°38' E 134°50'612.7
2018-Feb-17 02:30N 34°40' E 134°43'612.7
2018-Feb-17 02:00N 34°44' E 134°37'3 5.1
2018-Feb-17 01:30N 34°46' E 134°35'0 0.0
2018-Feb-17 00:59N 34°46' E 134°35'0 0.0
2018-Feb-17 00:30N 34°46' E 134°35'0 0.0
2018-Feb-17 00:00N 34°46' E 134°35'0 0.0
2018-Feb-16 23:30N 34°46' E 134°35'0 0.3
2018-Feb-16 23:00N 34°46' E 134°35'1 1.3
2018-Feb-16 22:30N 34°45' E 134°36'0 0.1
2018-Feb-16 22:00N 34°45' E 134°36'0 0.0
2018-Feb-16 21:26N 34°45' E 134°36'0 0.0
2018-Feb-16 20:48N 34°45' E 134°36'0 0.0
2018-Feb-16 19:52N 34°45' E 134°36'0 0.0
2018-Feb-16 19:30N 34°45' E 134°36'0 0.0
2018-Feb-16 19:00N 34°45' E 134°36'0 0.0
2018-Feb-16 18:23N 34°45' E 134°36'0 0.0
2018-Feb-16 18:00N 34°45' E 134°36'0 0.0
2018-Feb-16 17:30N 34°45' E 134°36'0 0.0
2018-Feb-16 17:00N 34°45' E 134°36'0 0.0
2018-Feb-16 16:30N 34°45' E 134°36'0 0.0
2018-Feb-16 15:59N 34°45' E 134°36'0 0.0
2018-Feb-16 15:27N 34°45' E 134°36'0 0.1
2018-Feb-16 14:53N 34°45' E 134°36'0 0.0
2018-Feb-16 14:30N 34°45' E 134°36'0 0.0
2018-Feb-16 13:59N 34°45' E 134°36'0 0.0
2018-Feb-16 13:30N 34°45' E 134°36'3 6.7
2018-Feb-16 13:00N 34°43' E 134°39'612.5
2018-Feb-16 12:30N 34°41' E 134°46'713.3
2018-Feb-16 12:00N 34°38' E 134°53'714.5
2018-Feb-16 11:30N 34°37' E 135°02'611.5
2018-Feb-16 11:00N 34°32' E 135°04'612.9
2018-Feb-16 10:30N 34°25' E 135°03'612.4
2018-Feb-16 10:00N 34°20' E 135°00'612.6
2018-Feb-16 09:30N 34°13' E 134°60'612.3
2018-Feb-16 09:00N 34°07' E 135°00'612.1
2018-Feb-16 08:30N 34°01' E 135°01'612.1
2018-Feb-16 08:00N 33°55' E 135°02'611.8
2018-Feb-16 07:30N 33°50' E 135°05'115 9.9
2018-Feb-15 19:53N 34°25' E 137°17'512.2
2018-Feb-15 19:30N 34°28' E 137°21'2611.2
2018-Feb-15 17:13N 34°38' E 137°50'412.0
2018-Feb-15 16:52N 34°38' E 137°55'411.3
2018-Feb-15 16:29N 34°38' E 138°00'610.6
2018-Feb-15 15:55N 34°36' E 138°07'4 9.9
2018-Feb-15 15:29N 34°34' E 138°12'510.0
2018-Feb-15 15:00N 34°34' E 138°18'610.6
2018-Feb-15 14:26N 34°34' E 138°25'510.3
2018-Feb-15 13:59N 34°34' E 138°31'510.3
2018-Feb-15 13:30N 34°34' E 138°37'510.2
2018-Feb-15 13:00N 34°35' E 138°43'510.2
2018-Feb-15 12:30N 34°35' E 138°49'5 9.4
2018-Feb-15 12:00N 34°36' E 138°55'5 9.4
2018-Feb-15 11:30N 34°38' E 138°59'510.5
2018-Feb-15 11:00N 34°42' E 139°04'510.9
2018-Feb-15 10:30N 34°47' E 139°07'610.7
2018-Feb-15 09:55N 34°52' E 139°11'410.6
2018-Feb-15 09:30N 34°56' E 139°14'510.5
2018-Feb-15 09:00N 34°58' E 139°20'510.6
2018-Feb-15 08:30N 35°00' E 139°26'510.6
2018-Feb-15 08:00N 35°03' E 139°31'611.2
2018-Feb-15 07:30N 35°06' E 139°37'611.8
2018-Feb-15 07:00N 35°09' E 139°43'611.4
2018-Feb-15 06:30N 35°14' E 139°46'611.3
2018-Feb-15 06:00N 35°19' E 139°43'611.1
2018-Feb-15 05:30N 35°25' E 139°44'612.3
2018-Feb-15 05:00N 35°28' E 139°50'611.9
2018-Feb-15 04:30N 35°31' E 139°56'611.4
2018-Feb-15 04:00N 35°32' E 140°03'0 0.7
2018-Feb-15 03:30N 35°32' E 140°03'0 0.0
2018-Feb-15 03:00N 35°32' E 140°03'0 0.0
2018-Feb-15 02:29N 35°32' E 140°03'0 0.0
2018-Feb-15 02:00N 35°32' E 140°03'0 0.0
2018-Feb-15 01:30N 35°32' E 140°03'0 0.0
2018-Feb-15 01:00N 35°32' E 140°03'0 0.0
2018-Feb-15 00:30N 35°32' E 140°03'0 0.0
2018-Feb-15 00:00N 35°32' E 140°03'0 0.1
2018-Feb-14 23:31N 35°32' E 140°03'3 5.9
2018-Feb-14 23:00N 35°32' E 139°60'611.4
2018-Feb-14 22:30N 35°29' E 139°54'1 1.0
2018-Feb-14 22:00N 35°28' E 139°53'0 0.1
2018-Feb-14 21:30N 35°28' E 139°53'0 0.0
2018-Feb-14 21:00N 35°28' E 139°53'0 0.0
2018-Feb-14 20:30N 35°28' E 139°53'3 5.3
2018-Feb-14 20:00N 35°27' E 139°50'510.9
2018-Feb-14 19:30N 35°23' E 139°46'510.6
2018-Feb-14 19:00N 35°18' E 139°45'510.8
2018-Feb-14 18:30N 35°13' E 139°47'510.6
2018-Feb-14 18:00N 35°08' E 139°46'611.1
2018-Feb-14 17:30N 35°02' E 139°44'9 8.2
2018-Feb-14 16:25N 34°54' E 139°46'13 5.9
2018-Feb-14 14:10N 34°55' E 140°02'4 7.8
2018-Feb-14 13:40N 34°57' E 140°06'2 8.1
2018-Feb-14 13:26N 34°59' E 140°08'3 0.1
2018-Feb-13 10:11N 34°56' E 140°09'22 9.1
2018-Feb-13 07:43N 35°00' E 139°42'210.8
2018-Feb-13 07:30N 35°03' E 139°43'510.5
2018-Feb-13 07:00N 35°08' E 139°44'510.7
2018-Feb-13 06:30N 35°13' E 139°46'510.9
2018-Feb-13 06:00N 35°18' E 139°44'510.7
2018-Feb-13 05:30N 35°23' E 139°42'510.5
2018-Feb-13 05:00N 35°27' E 139°46'3 6.8
2018-Feb-13 04:31N 35°31' E 139°46'0 0.0
2018-Feb-13 04:00N 35°31' E 139°46'0 0.0
2018-Feb-13 03:30N 35°31' E 139°46'0 0.0
2018-Feb-13 03:00N 35°31' E 139°46'0 0.0
2018-Feb-13 02:30N 35°31' E 139°46'0 0.0
2018-Feb-13 02:00N 35°31' E 139°46'0 0.0
2018-Feb-13 01:30N 35°31' E 139°46'0 0.0
2018-Feb-13 01:00N 35°31' E 139°46'0 0.0
2018-Feb-13 00:30N 35°31' E 139°46'0 0.7
2018-Feb-13 00:00N 35°30' E 139°47'2 4.3
2018-Feb-12 23:31N 35°29' E 139°49'0 0.1
2018-Feb-12 23:00N 35°29' E 139°49'0 0.0
2018-Feb-12 22:31N 35°29' E 139°49'0 0.0
2018-Feb-12 22:00N 35°29' E 139°49'0 0.1
2018-Feb-12 21:30N 35°29' E 139°49'0 0.0
2018-Feb-12 21:00N 35°29' E 139°49'0 0.1
2018-Feb-12 20:30N 35°29' E 139°49'0 0.1
2018-Feb-12 20:00N 35°29' E 139°49'0 0.0
2018-Feb-12 19:30N 35°29' E 139°49'0 0.0
2018-Feb-12 19:00N 35°29' E 139°49'0 0.0
2018-Feb-12 18:30N 35°29' E 139°49'0 0.0
2018-Feb-12 18:00N 35°29' E 139°49'0 0.0
2018-Feb-12 17:30N 35°29' E 139°49'0 0.0
2018-Feb-12 17:00N 35°29' E 139°49'0 0.0
2018-Feb-12 16:30N 35°29' E 139°49'0 0.0
2018-Feb-12 16:00N 35°29' E 139°49'0 0.0
2018-Feb-12 15:31N 35°29' E 139°49'0 0.0
2018-Feb-12 15:00N 35°29' E 139°49'0 0.0
2018-Feb-12 14:29N 35°29' E 139°49'0 0.0
2018-Feb-12 14:00N 35°29' E 139°49'0 0.0
2018-Feb-12 13:30N 35°29' E 139°49'0 0.1
2018-Feb-12 13:00N 35°29' E 139°49'0 0.1
2018-Feb-12 12:30N 35°29' E 139°49'0 0.0
2018-Feb-12 12:00N 35°29' E 139°49'0 0.0
2018-Feb-12 11:30N 35°29' E 139°49'0 0.0
2018-Feb-12 11:00N 35°29' E 139°49'0 0.0
2018-Feb-12 10:30N 35°29' E 139°49'0 0.0
2018-Feb-12 10:00N 35°29' E 139°49'0 0.0
2018-Feb-12 09:30N 35°29' E 139°49'0 0.0
2018-Feb-12 09:00N 35°29' E 139°49'0 0.0
2018-Feb-12 08:31N 35°29' E 139°49'0 0.0
2018-Feb-12 08:00N 35°29' E 139°49'0 0.0
2018-Feb-12 07:29N 35°29' E 139°49'0 0.1
2018-Feb-12 07:00N 35°29' E 139°49'2 4.0
2018-Feb-12 06:30N 35°27' E 139°48'612.8
2018-Feb-12 06:00N 35°21' E 139°45'611.3
2018-Feb-12 05:31N 35°16' E 139°46'612.1
2018-Feb-12 05:00N 35°10' E 139°47'612.2
2018-Feb-12 04:30N 35°04' E 139°44'612.6
2018-Feb-12 03:59N 34°60' E 139°38'913.0
2018-Feb-12 03:16N 34°54' E 139°29'414.1
2018-Feb-12 03:00N 34°52' E 139°25'814.8
2018-Feb-12 02:30N 34°47' E 139°18'914.4
2018-Feb-12 01:53N 34°41' E 139°10'514.6
2018-Feb-12 01:30N 34°38' E 139°06'713.8
2018-Feb-12 00:59N 34°33' E 138°59'912.9
2018-Feb-12 00:19N 34°31' E 138°49'412.8
2018-Feb-12 00:01N 34°30' E 138°44'712.8
2018-Feb-11 23:25N 34°30' E 138°35'612.9
2018-Feb-11 22:59N 34°29' E 138°28'612.9
2018-Feb-11 22:30N 34°29' E 138°20'713.4
2018-Feb-11 21:58N 34°28' E 138°12'713.3
2018-Feb-11 21:29N 34°27' E 138°04'6814.1
2018-Feb-11 16:38N 34°08' E 136°45'87 9.6
2018-Feb-11 07:36N 33°48' E 135°03'213.3
2018-Feb-11 07:29N 33°49' E 135°02'612.8
2018-Feb-11 07:00N 33°55' E 134°59'613.0
2018-Feb-11 06:30N 34°01' E 134°59'713.1
2018-Feb-11 06:00N 34°08' E 134°59'713.6
2018-Feb-11 05:31N 34°15' E 134°59'713.5
2018-Feb-11 05:00N 34°21' E 134°60'713.4
2018-Feb-11 04:31N 34°28' E 135°02'713.4
2018-Feb-11 04:01N 34°34' E 135°03'612.5
2018-Feb-11 03:30N 34°36' E 134°56'714.3
2018-Feb-11 03:00N 34°38' E 134°48'713.0
2018-Feb-11 02:30N 34°41' E 134°41'612.7
2018-Feb-11 02:00N 34°46' E 134°35'0 0.3
2018-Feb-11 01:30N 34°46' E 134°35'0 0.0
2018-Feb-11 01:00N 34°46' E 134°35'0 0.1
2018-Feb-11 00:30N 34°46' E 134°35'0 0.1
2018-Feb-10 23:58N 34°46' E 134°35'0 0.1
2018-Feb-10 23:28N 34°46' E 134°35'0 0.1
2018-Feb-10 23:00N 34°46' E 134°35'1 1.2
2018-Feb-10 22:22N 34°45' E 134°36'0 0.0
2018-Feb-10 22:00N 34°45' E 134°36'0 0.1
2018-Feb-10 21:30N 34°45' E 134°35'0 0.0
2018-Feb-10 21:00N 34°45' E 134°35'0 0.1
2018-Feb-10 20:30N 34°45' E 134°36'0 0.0
2018-Feb-10 18:22N 34°45' E 134°36'0 0.0
2018-Feb-10 17:13N 34°45' E 134°36'0 0.0
2018-Feb-10 15:46N 34°45' E 134°36'0 0.2
2018-Feb-10 15:30N 34°45' E 134°35'0 0.1
2018-Feb-10 15:00N 34°45' E 134°36'0 0.0
2018-Feb-10 14:29N 34°45' E 134°36'0 0.0
2018-Feb-10 13:57N 34°45' E 134°36'0 0.0
2018-Feb-10 13:30N 34°45' E 134°36'0 0.0
2018-Feb-10 12:53N 34°45' E 134°36'0 0.0
2018-Feb-10 12:28N 34°45' E 134°36'0 0.0
2018-Feb-10 11:59N 34°45' E 134°36'0 0.0
2018-Feb-10 11:02N 34°45' E 134°36'0 0.7
2018-Feb-10 10:58N 34°45' E 134°35'0 0.0
2018-Feb-10 10:22N 34°45' E 134°35'0 0.0
2018-Feb-10 10:00N 34°45' E 134°35'0 0.0
2018-Feb-10 09:19N 34°45' E 134°35'0 0.0
2018-Feb-10 08:49N 34°45' E 134°35'2 5.5
2018-Feb-10 08:30N 34°44' E 134°37'612.5
2018-Feb-10 08:00N 34°42' E 134°44'612.7
2018-Feb-10 07:30N 34°39' E 134°51'612.6
2018-Feb-10 07:00N 34°38' E 134°58'612.0
2018-Feb-10 06:30N 34°35' E 135°05'611.8
2018-Feb-10 06:00N 34°29' E 135°03'612.1
2018-Feb-10 05:31N 34°24' E 135°02'611.7
2018-Feb-10 05:00N 34°18' E 134°60'611.5
2018-Feb-10 04:30N 34°12' E 134°59'611.6
2018-Feb-10 04:00N 34°06' E 134°60'611.7
2018-Feb-10 03:30N 34°01' E 135°00'611.8
2018-Feb-10 02:59N 33°54' E 135°01'511.3
2018-Feb-10 02:30N 33°49' E 135°03'25010.2
2018-Feb-09 02:00N 35°25' E 139°44'611.6
2018-Feb-09 01:30N 35°30' E 139°47'1 1.0
2018-Feb-09 00:30N 35°31' E 139°46'0 0.0
2018-Feb-09 00:00N 35°31' E 139°46'0 0.0
2018-Feb-08 23:30N 35°31' E 139°46'0 0.0
2018-Feb-08 23:00N 35°31' E 139°46'0 0.0
2018-Feb-08 22:30N 35°31' E 139°46'2 1.5
2018-Feb-08 21:00N 35°29' E 139°46'0 0.1
2018-Feb-08 20:30N 35°29' E 139°46'0 0.0
2018-Feb-08 19:30N 35°29' E 139°46'0 0.0
2018-Feb-08 18:30N 35°29' E 139°46'0 0.0
2018-Feb-08 18:00N 35°29' E 139°46'0 0.0
2018-Feb-08 17:30N 35°29' E 139°46'0 0.0
2018-Feb-08 17:00N 35°29' E 139°46'0 0.0
2018-Feb-08 15:30N 35°29' E 139°46'0 0.0
2018-Feb-08 15:00N 35°29' E 139°46'0 0.0
2018-Feb-08 13:00N 35°29' E 139°46'0 0.0
2018-Feb-08 12:30N 35°29' E 139°46'0 0.0
2018-Feb-08 11:30N 35°29' E 139°46'0 0.1
2018-Feb-08 10:30N 35°29' E 139°46'0 0.1
2018-Feb-08 10:00N 35°29' E 139°46'0 0.0
2018-Feb-08 09:30N 35°29' E 139°46'0 0.0
2018-Feb-08 08:30N 35°29' E 139°46'2 4.8
2018-Feb-08 08:00N 35°26' E 139°47'  

Dump ship's entire track history